Custer, WA (98240)

3:56 PM PDT on August 20, 2014 (GMT -0700)
NE Ferndale | Change Station
CLOSE
Current Station
Personal Weather Station
Location: Ferndale, WA
Elevation: 69 ft
Nearby Weather Stations

Elev 69 ft 48.90 °N, 122.58 °W | Updated 8 minutes ago

Partly Cloudy
Partly Cloudy
70.1 °F
Feels Like 75 °F
N
3.0
Wind Variable Wind from West
Gusts 9.0 mph

Today
High -- | Low -- °F
--% Chance of Precip.
Yesterday
High -- | Low -- °F
Precip. -- in
6:10 AM 8:16 PM
Waning Crescent, 18% visible
Pressure 29.97 in
Visibility 10.0 miles
Clouds Few 7500 ft
Heat Index 75 °F
Dew Point 58 °F
Humidity 66%
Rainfall 0.00 in
Snow Depth Not available.
UV 7 out of 12
Pollen 2.70 out of 12
PM2.5 Good
Flu Activity Not available.
METAR KBLI 202153Z VRB06KT 10SM FEW075 21/12 A2995 RMK AO2 SLP149 T02060117

More Conditions Fewer Conditions

Pressure 29.97 in
Visibility 10.0 miles
Clouds Few 7500 ft
Heat Index 75 °F
Dew Point 58 °F
Humidity 66%
Rainfall 0.00 in
Snow Depth Not available.
UV 7 out of 12
Pollen 2.70 out of 12
PM2.5 Good
Flu Activity Not available.
METAR KBLI 202153Z VRB06KT 10SM FEW075 21/12 A2995 RMK AO2 SLP149 T02060117

More Conditions Fewer Conditions

10-Day Weather Forecast

Almanac

Astronomy

Aug. 20, 2014 Rise Set
Actual Time 6:10 AM PDT 8:16 PM PDT
Civil Twilight 5:35 AM PDT 8:50 PM PDT
Nautical Twilight 4:53 AM PDT 9:32 PM PDT
Astronomical Twilight 4:05 AM PDT 10:20 PM PDT
Moon 1:45 AM PDT 5:14 PM PDT
Length of Visible Light 15h 14m
Length of Day
14h 06m
Tomorrow will be 3m 20s shorter.
Waning Crescent, 18% of the Moon is Illuminated
Today
Waning Crescent
Aug 25
New
Sep 2
First Quarter
Sep 8
Full
Sep 15
Last Quarter

Today's Extremes

State Highs State Lows

Community

WunderPhotos

Upload Photos

1,745,791 photos uploaded!

Nearby

Air Quality

  Air Quality AQ Index Pollutant
Yesterday Good
PM2.5
Current Good
PM2.5
Wednesday Good
OZONE
Wednesday Good
PM2.5
Thursday Good
OZONE
Thursday Good
PM2.5
Friday Good
OZONE
Friday Good
PM2.5
Saturday Good
OZONE
Saturday Good
PM2.5
Sunday Good
OZONE
Sunday Good
PM2.5

Snow Depth

Station Depth Elevation
Dungeness 5 in 4100 ft
Thunder Basin 1 in 4200 ft
Alpine Meadows 0 in 3500 ft
Harts Pass 0 in 6500 ft
Meadows Pass 0 in 3500 ft

Earthquake Activity

City Distance Mag. Time & Date
No recent earthquake activity has been reported nearby.
Minimum magnitude displayed is 2.5.

Coastal Water Temperatures

Place Temperature
Port Townsend, WA 54.0 °F
Friday Harbor, WA 53.1 °F
Port Angeles, WA 52.0 °F

Nearby Weather Stations